createdAt,value
2018-03-10T00:00:11.694Z,0.00
2018-03-10T00:01:11.687Z,0.00
2018-03-10T00:02:11.679Z,0.00
2018-03-10T00:03:11.672Z,0.00
2018-03-10T00:04:11.662Z,0.00
2018-03-10T00:05:11.655Z,0.00
2018-03-10T00:06:11.647Z,0.00
2018-03-10T00:07:11.639Z,0.00
2018-03-10T00:08:11.633Z,0.00
2018-03-10T00:09:11.625Z,0.00
2018-03-10T00:10:11.616Z,0.00
2018-03-10T00:11:11.610Z,0.00
2018-03-10T00:12:11.605Z,0.00
2018-03-10T00:13:11.598Z,0.00
2018-03-10T00:14:11.590Z,0.00
2018-03-10T00:15:11.582Z,0.00
2018-03-10T00:16:11.574Z,0.00
2018-03-10T00:17:11.567Z,0.00
2018-03-10T00:18:11.559Z,0.00
2018-03-10T00:19:11.552Z,0.00
2018-03-10T00:20:11.541Z,0.00
2018-03-10T00:21:11.534Z,0.00
2018-03-10T00:22:11.527Z,0.00
2018-03-10T00:23:11.519Z,0.00
2018-03-10T00:24:11.513Z,0.00
2018-03-10T00:25:11.507Z,0.00
2018-03-10T00:26:11.498Z,0.00
2018-03-10T00:27:11.518Z,0.00
2018-03-10T00:28:11.488Z,0.00
2018-03-10T00:29:11.480Z,0.00
2018-03-10T00:30:11.470Z,0.00
2018-03-10T00:31:11.463Z,0.00
2018-03-10T00:32:11.457Z,0.00
2018-03-10T00:33:11.448Z,0.00
2018-03-10T00:34:11.441Z,0.00
2018-03-10T00:35:11.433Z,0.00
2018-03-10T00:36:11.468Z,0.00
2018-03-10T00:37:11.416Z,0.00
2018-03-10T00:38:11.408Z,0.00
2018-03-10T00:39:11.402Z,0.00
2018-03-10T00:40:11.394Z,0.00
2018-03-10T00:41:11.386Z,0.00
2018-03-10T00:42:11.378Z,0.00
2018-03-10T00:43:11.371Z,0.00
2018-03-10T00:44:11.367Z,0.00
2018-03-10T00:45:11.363Z,0.00
2018-03-10T00:46:11.351Z,0.00
2018-03-10T00:47:11.345Z,0.00
2018-03-10T00:48:11.335Z,0.00
2018-03-10T00:49:11.326Z,0.00
2018-03-10T00:50:11.319Z,0.00
2018-03-10T00:51:11.314Z,0.00
2018-03-10T00:52:11.307Z,0.00
2018-03-10T00:53:11.298Z,0.00
2018-03-10T00:54:11.290Z,0.00
2018-03-10T00:55:11.286Z,0.00
2018-03-10T00:56:11.276Z,0.00
2018-03-10T00:57:11.268Z,0.00
2018-03-10T00:58:11.261Z,0.00
2018-03-10T00:59:11.254Z,0.00
2018-03-10T01:00:11.242Z,0.00
2018-03-10T01:01:11.234Z,0.00
2018-03-10T01:02:11.227Z,0.00
2018-03-10T01:03:11.220Z,0.00
2018-03-10T01:04:11.212Z,0.00
2018-03-10T01:05:11.204Z,0.00
2018-03-10T01:06:11.196Z,0.00
2018-03-10T01:07:11.189Z,0.00
2018-03-10T01:08:11.184Z,0.00
2018-03-10T01:09:11.176Z,0.00
2018-03-10T01:10:11.170Z,0.00
2018-03-10T01:11:11.162Z,0.00
2018-03-10T01:12:11.155Z,0.00
2018-03-10T01:13:11.147Z,0.00
2018-03-10T01:14:11.140Z,0.00
2018-03-10T01:15:11.131Z,0.00
2018-03-10T01:16:11.121Z,0.00
2018-03-10T01:17:11.114Z,0.00
2018-03-10T01:18:11.105Z,0.00
2018-03-10T01:19:11.099Z,0.00
2018-03-10T01:20:11.091Z,0.00
2018-03-10T01:21:11.084Z,0.00
2018-03-10T01:22:11.075Z,0.00
2018-03-10T01:23:11.069Z,0.00
2018-03-10T01:24:11.063Z,0.00
2018-03-10T01:25:11.056Z,0.00
2018-03-10T01:26:11.049Z,0.00
2018-03-10T01:27:11.042Z,0.00
2018-03-10T01:28:11.035Z,0.00
2018-03-10T01:29:11.027Z,0.00
2018-03-10T01:30:11.019Z,0.00
2018-03-10T01:31:11.012Z,0.00
2018-03-10T01:32:11.003Z,0.00
2018-03-10T01:33:10.995Z,0.00
2018-03-10T01:34:10.987Z,0.00
2018-03-10T01:35:10.979Z,0.00
2018-03-10T01:36:10.973Z,0.00
2018-03-10T01:37:10.964Z,0.00
2018-03-10T01:38:10.957Z,0.00
2018-03-10T01:39:10.950Z,0.00
2018-03-10T01:40:10.945Z,0.00
2018-03-10T01:41:10.937Z,0.00
2018-03-10T01:42:10.930Z,0.00
2018-03-10T01:43:10.924Z,0.00
2018-03-10T01:44:10.917Z,0.00
2018-03-10T01:45:10.909Z,0.00
2018-03-10T01:46:10.901Z,0.00
2018-03-10T01:47:10.893Z,0.00
2018-03-10T01:48:10.884Z,0.00
2018-03-10T01:49:10.876Z,0.00
2018-03-10T01:50:10.870Z,0.00
2018-03-10T01:51:10.865Z,0.00
2018-03-10T01:52:10.855Z,0.00
2018-03-10T01:53:10.850Z,0.00
2018-03-10T01:54:10.840Z,0.00
2018-03-10T01:55:10.833Z,0.00
2018-03-10T01:56:10.828Z,0.00
2018-03-10T01:57:10.821Z,0.00
2018-03-10T01:58:10.815Z,0.00
2018-03-10T01:59:10.807Z,0.00
2018-03-10T02:00:10.799Z,0.00
2018-03-10T02:01:10.793Z,0.00
2018-03-10T02:02:10.786Z,0.00
2018-03-10T02:03:10.781Z,0.00
2018-03-10T02:04:10.768Z,0.00
2018-03-10T02:05:10.760Z,0.00
2018-03-10T02:06:10.753Z,0.00
2018-03-10T02:07:10.748Z,0.00
2018-03-10T02:08:10.740Z,0.00
2018-03-10T02:09:10.732Z,0.00
2018-03-10T02:10:10.723Z,0.00
2018-03-10T02:11:10.718Z,0.00
2018-03-10T02:12:10.713Z,0.00
2018-03-10T02:13:10.705Z,0.00
2018-03-10T02:14:10.698Z,0.00
2018-03-10T02:15:10.691Z,0.00
2018-03-10T02:16:10.684Z,0.00
2018-03-10T02:17:10.676Z,0.00
2018-03-10T02:18:10.670Z,0.00
2018-03-10T02:19:10.662Z,0.00
2018-03-10T02:20:10.652Z,0.00
2018-03-10T02:21:10.644Z,0.00
2018-03-10T02:22:10.638Z,0.00
2018-03-10T02:23:10.632Z,0.00
2018-03-10T02:24:10.624Z,0.00
2018-03-10T02:25:10.615Z,0.00
2018-03-10T02:26:10.612Z,0.00
2018-03-10T02:27:10.602Z,0.00
2018-03-10T02:28:10.597Z,0.00
2018-03-10T02:29:10.589Z,0.00
2018-03-10T02:30:10.582Z,0.00
2018-03-10T02:31:10.576Z,0.00
2018-03-10T02:32:10.572Z,0.00
2018-03-10T02:33:10.562Z,0.00
2018-03-10T02:34:10.553Z,0.00
2018-03-10T02:35:10.547Z,0.00
2018-03-10T02:36:10.537Z,0.00
2018-03-10T02:37:10.529Z,0.00
2018-03-10T02:38:10.522Z,0.00
2018-03-10T02:39:10.514Z,0.00
2018-03-10T02:40:10.507Z,0.00
2018-03-10T02:41:10.501Z,0.00
2018-03-10T02:42:10.497Z,0.00
2018-03-10T02:43:10.486Z,0.00
2018-03-10T02:44:10.480Z,0.00
2018-03-10T02:45:10.472Z,0.00
2018-03-10T02:46:10.466Z,0.00
2018-03-10T02:47:10.458Z,0.00
2018-03-10T02:48:10.450Z,0.00
2018-03-10T02:49:10.446Z,0.00
2018-03-10T02:50:10.437Z,0.00
2018-03-10T02:51:10.428Z,0.00
2018-03-10T02:52:10.419Z,0.00
2018-03-10T02:53:10.411Z,0.00
2018-03-10T02:54:10.405Z,0.00
2018-03-10T02:55:10.398Z,0.00
2018-03-10T02:56:10.393Z,0.00
2018-03-10T02:57:10.386Z,0.00
2018-03-10T02:58:10.377Z,0.00
2018-03-10T02:59:10.370Z,0.00
2018-03-10T03:00:10.361Z,0.00
2018-03-10T03:01:10.353Z,0.00
2018-03-10T03:02:10.346Z,0.00
2018-03-10T03:03:10.339Z,0.00
2018-03-10T03:04:10.332Z,0.00
2018-03-10T03:05:10.323Z,0.00
2018-03-10T03:06:10.318Z,0.00
2018-03-10T03:07:10.310Z,0.00
2018-03-10T03:08:10.305Z,0.00
2018-03-10T03:09:10.297Z,0.00
2018-03-10T03:10:10.290Z,0.00
2018-03-10T03:11:10.284Z,0.00
2018-03-10T03:12:10.276Z,0.00
2018-03-10T03:13:10.268Z,0.00
2018-03-10T03:14:10.262Z,0.00
2018-03-10T03:15:10.254Z,0.00
2018-03-10T03:16:10.245Z,0.00
2018-03-10T03:17:10.240Z,0.00
2018-03-10T03:18:10.230Z,0.00
2018-03-10T03:19:10.225Z,0.00
2018-03-10T03:20:10.215Z,0.00
2018-03-10T03:21:10.209Z,0.00
2018-03-10T03:22:10.201Z,0.00
2018-03-10T03:23:10.197Z,0.00
2018-03-10T03:24:10.190Z,0.00
2018-03-10T03:25:10.182Z,0.00
2018-03-10T03:26:10.176Z,0.00
2018-03-10T03:27:10.170Z,0.00
2018-03-10T03:28:10.161Z,0.00
2018-03-10T03:29:10.164Z,0.00
2018-03-10T03:30:10.147Z,0.00
2018-03-10T03:31:10.143Z,0.00
2018-03-10T03:32:10.129Z,0.00
2018-03-10T03:33:10.121Z,0.00
2018-03-10T03:34:10.115Z,0.00
2018-03-10T03:35:10.108Z,0.00
2018-03-10T03:36:10.102Z,0.00
2018-03-10T03:37:10.093Z,0.00
2018-03-10T03:38:10.087Z,0.00
2018-03-10T03:39:10.080Z,0.00
2018-03-10T03:40:10.075Z,0.00
2018-03-10T03:41:10.069Z,0.00
2018-03-10T03:42:10.060Z,0.00
2018-03-10T03:43:10.054Z,0.00
2018-03-10T03:44:10.047Z,0.00
2018-03-10T03:45:10.040Z,0.00
2018-03-10T03:46:10.033Z,0.00
2018-03-10T03:47:10.031Z,0.00
2018-03-10T03:48:10.020Z,0.00
2018-03-10T03:49:10.009Z,0.00
2018-03-10T03:50:10.003Z,0.00
2018-03-10T03:51:09.995Z,0.00
2018-03-10T03:52:09.989Z,0.00
2018-03-10T03:53:09.981Z,0.00
2018-03-10T03:54:09.974Z,0.00
2018-03-10T03:55:09.968Z,0.00
2018-03-10T03:56:09.963Z,0.00
2018-03-10T03:57:09.956Z,0.00
2018-03-10T03:58:09.950Z,0.00
2018-03-10T03:59:09.942Z,0.00
2018-03-10T04:00:09.934Z,0.00
2018-03-10T04:01:09.927Z,0.00
2018-03-10T04:02:09.919Z,0.00
2018-03-10T04:03:09.916Z,0.00
2018-03-10T04:04:09.908Z,0.00
2018-03-10T04:05:09.899Z,0.00
2018-03-10T04:06:09.893Z,0.00
2018-03-10T04:07:09.886Z,0.00
2018-03-10T04:08:09.881Z,0.00
2018-03-10T04:09:09.872Z,0.00
2018-03-10T04:10:09.867Z,0.00
2018-03-10T04:11:09.858Z,0.00
2018-03-10T04:12:09.850Z,0.00
2018-03-10T04:13:09.842Z,0.00
2018-03-10T04:14:09.835Z,0.00
2018-03-10T04:15:09.828Z,0.00
2018-03-10T04:16:09.821Z,0.00
2018-03-10T04:17:09.814Z,0.00
2018-03-10T04:18:09.808Z,0.00
2018-03-10T04:19:09.800Z,0.00
2018-03-10T04:20:09.797Z,0.00
2018-03-10T04:21:09.788Z,0.00
2018-03-10T04:22:09.781Z,0.00
2018-03-10T04:23:09.776Z,0.00
2018-03-10T04:24:09.769Z,0.00
2018-03-10T04:25:09.760Z,0.00
2018-03-10T04:26:09.754Z,0.00
2018-03-10T04:27:09.748Z,0.00
2018-03-10T04:28:09.739Z,0.00
2018-03-10T04:29:09.728Z,0.00
2018-03-10T04:30:09.723Z,0.00
2018-03-10T04:31:09.719Z,0.00
2018-03-10T04:32:09.709Z,0.00
2018-03-10T04:33:09.705Z,0.00
2018-03-10T04:34:09.694Z,0.00
2018-03-10T04:35:09.687Z,0.00
2018-03-10T04:36:09.683Z,0.00
2018-03-10T04:37:09.675Z,0.00
2018-03-10T04:38:09.668Z,0.00
2018-03-10T04:39:09.666Z,0.00
2018-03-10T04:40:09.654Z,0.00
2018-03-10T04:41:09.648Z,0.00
2018-03-10T04:42:09.639Z,0.00
2018-03-10T04:43:09.632Z,0.00
2018-03-10T04:44:09.622Z,0.00
2018-03-10T04:45:09.614Z,0.00
2018-03-10T04:46:09.609Z,0.00
2018-03-10T04:47:09.600Z,0.00
2018-03-10T04:48:09.595Z,0.00
2018-03-10T04:49:09.585Z,0.00
2018-03-10T04:50:09.578Z,0.00
2018-03-10T04:51:09.573Z,0.00
2018-03-10T04:52:09.566Z,0.00
2018-03-10T04:53:09.558Z,0.00
2018-03-10T04:54:09.551Z,0.00
2018-03-10T04:55:09.543Z,0.00
2018-03-10T04:56:09.538Z,0.00
2018-03-10T04:57:09.528Z,0.00
2018-03-10T04:58:09.522Z,0.00
2018-03-10T04:59:09.514Z,0.00
2018-03-10T05:00:09.503Z,0.00
2018-03-10T05:01:09.496Z,0.00
2018-03-10T05:02:09.488Z,0.00
2018-03-10T05:03:09.482Z,0.00
2018-03-10T05:04:09.478Z,0.00
2018-03-10T05:05:09.468Z,0.00
2018-03-10T05:06:09.462Z,0.00
2018-03-10T05:07:09.455Z,0.00
2018-03-10T05:08:09.446Z,0.00
2018-03-10T05:09:09.436Z,0.00
2018-03-10T05:10:09.430Z,0.00
2018-03-10T05:11:09.421Z,0.00
2018-03-10T05:12:09.418Z,0.00
2018-03-10T05:13:09.407Z,0.00
2018-03-10T05:14:09.399Z,0.00
2018-03-10T05:15:09.391Z,0.00
2018-03-10T05:16:09.392Z,0.00
2018-03-10T05:17:09.380Z,0.00
2018-03-10T05:18:09.373Z,0.00
2018-03-10T05:19:09.366Z,0.00
2018-03-10T05:20:09.360Z,0.00
2018-03-10T05:21:09.357Z,0.00
2018-03-10T05:22:09.344Z,0.00
2018-03-10T05:23:09.337Z,0.00
2018-03-10T05:24:09.328Z,0.00
2018-03-10T05:25:09.320Z,0.00
2018-03-10T05:26:09.313Z,0.00
2018-03-10T05:27:09.306Z,0.00
2018-03-10T05:28:09.299Z,0.00
2018-03-10T05:29:09.290Z,0.00
2018-03-10T05:30:09.284Z,0.00
2018-03-10T05:31:09.277Z,0.00
2018-03-10T05:32:09.272Z,0.00
2018-03-10T05:33:09.264Z,0.00
2018-03-10T05:34:09.258Z,0.00
2018-03-10T05:35:09.252Z,0.00
2018-03-10T05:36:09.244Z,0.00
2018-03-10T05:37:09.240Z,0.00
2018-03-10T05:38:09.229Z,0.00
2018-03-10T05:39:09.223Z,0.00
2018-03-10T05:40:09.214Z,0.00
2018-03-10T05:41:09.204Z,0.00
2018-03-10T05:42:09.198Z,0.00
2018-03-10T05:43:09.190Z,0.00
2018-03-10T05:44:09.184Z,0.00
2018-03-10T05:45:09.175Z,0.00
2018-03-10T05:46:09.169Z,0.00
2018-03-10T05:47:09.162Z,0.00
2018-03-10T05:48:09.164Z,0.00
2018-03-10T05:49:09.151Z,0.00
2018-03-10T05:50:09.144Z,0.00
2018-03-10T05:51:09.137Z,0.00
2018-03-10T05:52:09.131Z,5.63
2018-03-10T05:53:09.122Z,5.63
2018-03-10T05:54:09.117Z,5.63
2018-03-10T05:55:09.109Z,5.63
2018-03-10T05:56:09.101Z,5.63
2018-03-10T05:57:09.092Z,11.25
2018-03-10T05:58:09.086Z,11.25
2018-03-10T05:59:09.078Z,11.25
2018-03-10T06:00:09.072Z,11.25
2018-03-10T06:01:09.065Z,16.88
2018-03-10T06:02:09.057Z,16.88
2018-03-10T06:03:09.056Z,16.88
2018-03-10T06:04:09.047Z,16.88
2018-03-10T06:05:09.039Z,22.50
2018-03-10T06:06:09.033Z,22.50
2018-03-10T06:07:09.025Z,22.50
2018-03-10T06:08:09.017Z,22.50
2018-03-10T06:09:09.009Z,28.13
2018-03-10T06:10:09.041Z,28.13
2018-03-10T06:11:08.997Z,33.75
2018-03-10T06:12:08.991Z,33.75
2018-03-10T06:13:08.985Z,39.38
2018-03-10T06:14:08.978Z,33.75
2018-03-10T06:15:08.971Z,33.75
2018-03-10T06:16:08.964Z,33.75
2018-03-10T06:17:08.957Z,28.13
2018-03-10T06:18:08.951Z,28.13
2018-03-10T06:19:08.944Z,28.13
2018-03-10T06:20:08.934Z,33.75
2018-03-10T06:21:08.928Z,39.38
2018-03-10T06:22:08.919Z,39.38
2018-03-10T06:23:08.913Z,45.00
2018-03-10T06:24:08.919Z,45.00
2018-03-10T06:25:08.899Z,50.63
2018-03-10T06:26:08.892Z,56.25
2018-03-10T06:27:08.887Z,61.88
2018-03-10T06:28:08.883Z,61.88
2018-03-10T06:29:08.876Z,61.88
2018-03-10T06:30:08.867Z,56.25
2018-03-10T06:31:08.863Z,56.25
2018-03-10T06:32:08.860Z,50.63
2018-03-10T06:33:08.848Z,50.63
2018-03-10T06:34:08.842Z,50.63
2018-03-10T06:35:08.835Z,56.25
2018-03-10T06:36:08.826Z,56.25
2018-03-10T06:37:08.819Z,67.50
2018-03-10T06:38:08.812Z,73.13
2018-03-10T06:39:08.807Z,78.75
2018-03-10T06:40:08.801Z,84.38
2018-03-10T06:41:08.793Z,84.38
2018-03-10T06:42:08.786Z,84.38
2018-03-10T06:43:08.780Z,84.38
2018-03-10T06:44:08.776Z,78.75
2018-03-10T06:45:08.770Z,78.75
2018-03-10T06:46:08.763Z,78.75
2018-03-10T06:47:08.756Z,73.13
2018-03-10T06:48:08.750Z,73.13
2018-03-10T06:49:08.743Z,78.75
2018-03-10T06:50:08.738Z,73.13
2018-03-10T06:51:08.731Z,78.75
2018-03-10T06:52:08.721Z,84.38
2018-03-10T06:53:08.715Z,90.00
2018-03-10T06:54:08.708Z,101.25
2018-03-10T06:55:08.702Z,106.88
2018-03-10T06:56:08.696Z,112.50
2018-03-10T06:57:08.688Z,112.50
2018-03-10T06:58:08.681Z,118.13
2018-03-10T06:59:08.678Z,123.75
2018-03-10T07:00:08.673Z,129.38
2018-03-10T07:01:08.664Z,135.00
2018-03-10T07:02:08.658Z,146.25
2018-03-10T07:03:08.652Z,151.88
2018-03-10T07:04:08.647Z,163.13
2018-03-10T07:05:08.639Z,174.38
2018-03-10T07:06:08.634Z,185.63
2018-03-10T07:07:08.627Z,196.88
2018-03-10T07:08:08.618Z,202.50
2018-03-10T07:09:08.610Z,225.00
2018-03-10T07:10:08.604Z,241.88
2018-03-10T07:11:08.599Z,258.75
2018-03-10T07:12:08.596Z,258.75
2018-03-10T07:13:08.590Z,270.00
2018-03-10T07:14:08.582Z,275.63
2018-03-10T07:15:08.577Z,298.13
2018-03-10T07:16:08.568Z,331.88
2018-03-10T07:17:08.562Z,489.38
2018-03-10T07:18:08.555Z,433.13
2018-03-10T07:19:08.549Z,416.25
2018-03-10T07:20:08.544Z,360.00
2018-03-10T07:21:08.537Z,365.63
2018-03-10T07:22:08.533Z,360.00
2018-03-10T07:23:08.527Z,382.50
2018-03-10T07:24:08.522Z,405.00
2018-03-10T07:25:08.517Z,556.88
2018-03-10T07:26:08.512Z,433.13
2018-03-10T07:27:08.506Z,438.75
2018-03-10T07:28:08.501Z,444.38
2018-03-10T07:29:08.495Z,472.50
2018-03-10T07:30:08.496Z,511.88
2018-03-10T07:31:08.485Z,967.50
2018-03-10T07:32:08.480Z,748.13
2018-03-10T07:33:08.472Z,776.25
2018-03-10T07:34:08.466Z,798.75
2018-03-10T07:35:08.463Z,607.50
2018-03-10T07:36:08.457Z,568.13
2018-03-10T07:37:08.453Z,708.75
2018-03-10T07:38:08.448Z,933.75
2018-03-10T07:39:08.444Z,1023.75
2018-03-10T07:40:08.443Z,1085.63
2018-03-10T07:41:08.438Z,1220.63
2018-03-10T07:42:08.434Z,1293.75
2018-03-10T07:43:08.520Z,1254.38
2018-03-10T07:44:08.429Z,1395.00
2018-03-10T07:45:08.424Z,1411.88
2018-03-10T07:46:08.421Z,1361.25
2018-03-10T07:47:08.418Z,1423.13
2018-03-10T07:48:08.413Z,1428.75
2018-03-10T07:49:08.411Z,1440.00
2018-03-10T07:50:08.407Z,1451.25
2018-03-10T07:51:08.407Z,1445.63
2018-03-10T07:52:08.407Z,1479.38
2018-03-10T07:53:08.405Z,1507.50
2018-03-10T07:54:08.405Z,1496.25
2018-03-10T07:55:08.404Z,1451.25
2018-03-10T07:56:08.407Z,1473.75
2018-03-10T07:57:08.405Z,1507.50
2018-03-10T07:58:08.406Z,1518.75
2018-03-10T07:59:08.408Z,1535.63
2018-03-10T08:00:08.409Z,1507.50
2018-03-10T08:01:08.409Z,1535.63
2018-03-10T08:02:08.410Z,1513.13
2018-03-10T08:03:08.415Z,1501.88
2018-03-10T08:04:08.411Z,1563.75
2018-03-10T08:05:08.412Z,1608.75
2018-03-10T08:06:08.420Z,1625.63
2018-03-10T08:07:08.420Z,1029.38
2018-03-10T08:08:08.419Z,1023.75
2018-03-10T08:09:08.421Z,866.25
2018-03-10T08:10:08.422Z,1057.50
2018-03-10T08:11:08.425Z,1001.25
2018-03-10T08:12:08.432Z,669.38
2018-03-10T08:13:08.433Z,410.63
2018-03-10T08:14:08.438Z,399.38
2018-03-10T08:15:08.440Z,416.25
2018-03-10T08:16:08.439Z,568.13
2018-03-10T08:17:08.440Z,1035.00
2018-03-10T08:18:08.443Z,1035.00
2018-03-10T08:19:08.445Z,933.75
2018-03-10T08:20:08.451Z,1040.63
2018-03-10T08:21:08.452Z,1051.88
2018-03-10T08:22:08.453Z,1035.00
2018-03-10T08:23:08.457Z,1057.50
2018-03-10T08:24:08.460Z,1046.25
2018-03-10T08:25:08.461Z,1035.00
2018-03-10T08:26:08.464Z,855.00
2018-03-10T08:27:08.467Z,753.75
2018-03-10T08:28:08.466Z,815.63
2018-03-10T08:29:08.468Z,978.75
2018-03-10T08:30:08.471Z,1006.88
2018-03-10T08:31:08.475Z,1091.25
2018-03-10T08:32:08.478Z,1141.88
2018-03-10T08:33:08.480Z,1198.13
2018-03-10T08:34:08.481Z,1271.25
2018-03-10T08:35:08.487Z,1321.88
2018-03-10T08:36:08.490Z,1389.38
2018-03-10T08:37:08.493Z,1473.75
2018-03-10T08:38:08.499Z,1355.63
2018-03-10T08:39:08.499Z,1614.38
2018-03-10T08:40:08.505Z,1693.13
2018-03-10T08:41:08.504Z,1766.25
2018-03-10T08:42:08.507Z,1501.88
2018-03-10T08:43:08.514Z,1788.75
2018-03-10T08:44:08.513Z,1288.13
2018-03-10T08:45:08.516Z,1462.50
2018-03-10T08:46:08.519Z,1614.38
2018-03-10T08:47:08.522Z,1901.25
2018-03-10T08:48:08.528Z,1130.63
2018-03-10T08:49:08.532Z,1260.00
2018-03-10T08:50:08.535Z,1276.88
2018-03-10T08:51:08.539Z,1372.50
2018-03-10T08:52:08.548Z,1816.88
2018-03-10T08:53:08.595Z,1800.00
2018-03-10T08:54:08.556Z,1985.63
2018-03-10T08:55:08.561Z,2053.13
2018-03-10T08:56:08.565Z,1766.25
2018-03-10T08:57:08.569Z,1951.88
2018-03-10T08:58:08.573Z,1906.88
2018-03-10T08:59:08.579Z,1833.75
2018-03-10T09:00:08.581Z,1147.50
2018-03-10T09:01:08.585Z,1147.50
2018-03-10T09:02:08.590Z,1102.50
2018-03-10T09:03:08.596Z,2053.13
2018-03-10T09:04:08.602Z,978.75
2018-03-10T09:05:08.653Z,911.25
2018-03-10T09:06:08.611Z,967.50
2018-03-10T09:07:08.616Z,798.75
2018-03-10T09:08:08.625Z,736.88
2018-03-10T09:09:08.629Z,703.13
2018-03-10T09:10:08.633Z,691.88
2018-03-10T09:11:08.637Z,691.88
2018-03-10T09:12:08.642Z,663.75
2018-03-10T09:13:08.647Z,663.75
2018-03-10T09:14:08.654Z,697.50
2018-03-10T09:15:08.655Z,855.00
2018-03-10T09:16:08.657Z,1029.38
2018-03-10T09:17:08.658Z,1417.50
2018-03-10T09:18:08.660Z,1063.13
2018-03-10T09:19:08.664Z,1231.88
2018-03-10T09:20:08.670Z,894.38
2018-03-10T09:21:08.672Z,804.38
2018-03-10T09:22:08.674Z,787.50
2018-03-10T09:23:08.693Z,855.00
2018-03-10T09:24:08.678Z,1080.00
2018-03-10T09:25:08.679Z,1243.13
2018-03-10T09:26:08.681Z,1434.38
2018-03-10T09:27:08.683Z,1175.63
2018-03-10T09:28:08.685Z,1288.13
2018-03-10T09:29:08.686Z,1068.75
2018-03-10T09:30:08.688Z,1023.75
2018-03-10T09:31:08.689Z,1175.63
2018-03-10T09:32:08.698Z,1074.38
2018-03-10T09:33:08.695Z,1372.50
2018-03-10T09:34:08.697Z,804.38
2018-03-10T09:35:08.698Z,675.00
2018-03-10T09:36:08.705Z,618.75
2018-03-10T09:37:08.699Z,590.63
2018-03-10T09:38:08.703Z,562.50
2018-03-10T09:39:08.704Z,528.75
2018-03-10T09:40:08.700Z,489.38
2018-03-10T09:41:08.702Z,466.88
2018-03-10T09:42:08.701Z,455.63
2018-03-10T09:43:08.703Z,450.00
2018-03-10T09:44:08.705Z,444.38
2018-03-10T09:45:08.707Z,450.00
2018-03-10T09:46:08.705Z,461.25
2018-03-10T09:47:08.706Z,472.50
2018-03-10T09:48:08.708Z,466.88
2018-03-10T09:49:08.712Z,450.00
2018-03-10T09:50:08.707Z,455.63
2018-03-10T09:51:08.709Z,450.00
2018-03-10T09:52:08.710Z,444.38
2018-03-10T09:53:08.706Z,438.75
2018-03-10T09:54:08.710Z,433.13
2018-03-10T09:55:08.706Z,433.13
2018-03-10T09:56:08.702Z,450.00
2018-03-10T09:57:08.702Z,461.25
2018-03-10T09:58:08.703Z,466.88
2018-03-10T09:59:08.702Z,483.75
2018-03-10T10:00:08.700Z,500.63
2018-03-10T10:01:08.698Z,506.25
2018-03-10T10:02:08.697Z,495.00
2018-03-10T10:03:08.702Z,483.75
2018-03-10T10:04:08.698Z,472.50
2018-03-10T10:05:08.697Z,461.25
2018-03-10T10:06:08.696Z,461.25
2018-03-10T10:07:08.696Z,450.00
2018-03-10T10:08:08.693Z,444.38
2018-03-10T10:09:08.695Z,444.38
2018-03-10T10:10:08.693Z,444.38
2018-03-10T10:11:08.690Z,444.38
2018-03-10T10:12:08.685Z,438.75
2018-03-10T10:13:08.685Z,461.25
2018-03-10T10:14:08.683Z,483.75
2018-03-10T10:15:08.684Z,483.75
2018-03-10T10:16:08.680Z,483.75
2018-03-10T10:17:08.678Z,483.75
2018-03-10T10:18:08.678Z,483.75
2018-03-10T10:19:08.676Z,489.38
2018-03-10T10:20:08.677Z,495.00
2018-03-10T10:21:08.675Z,489.38
2018-03-10T10:22:08.674Z,483.75
2018-03-10T10:23:08.673Z,483.75
2018-03-10T10:24:08.671Z,483.75
2018-03-10T10:25:08.669Z,483.75
2018-03-10T10:26:08.667Z,489.38
2018-03-10T10:27:08.728Z,478.13
2018-03-10T10:28:08.665Z,466.88
2018-03-10T10:29:08.660Z,455.63
2018-03-10T10:30:08.659Z,444.38
2018-03-10T10:31:08.656Z,433.13
2018-03-10T10:32:08.656Z,433.13
2018-03-10T10:33:08.653Z,444.38
2018-03-10T10:34:08.652Z,466.88
2018-03-10T10:35:08.649Z,483.75
2018-03-10T10:36:08.651Z,495.00
2018-03-10T10:37:08.649Z,511.88
2018-03-10T10:38:08.647Z,556.88
2018-03-10T10:39:08.648Z,624.38
2018-03-10T10:40:08.644Z,686.25
2018-03-10T10:41:08.645Z,720.00
2018-03-10T10:42:08.641Z,731.25
2018-03-10T10:43:08.640Z,742.50
2018-03-10T10:44:08.634Z,725.63
2018-03-10T10:45:08.634Z,714.38
2018-03-10T10:46:08.632Z,720.00
2018-03-10T10:47:08.630Z,731.25
2018-03-10T10:48:08.629Z,720.00
2018-03-10T10:49:08.627Z,708.75
2018-03-10T10:50:08.626Z,686.25
2018-03-10T10:51:08.707Z,658.13
2018-03-10T10:52:08.627Z,641.25
2018-03-10T10:53:08.624Z,607.50
2018-03-10T10:54:08.623Z,568.13
2018-03-10T10:55:08.628Z,551.25
2018-03-10T10:56:08.626Z,540.00
2018-03-10T10:57:08.622Z,528.75
2018-03-10T10:58:08.621Z,523.13
2018-03-10T10:59:08.626Z,506.25
2018-03-10T11:00:08.617Z,500.63
2018-03-10T11:01:08.624Z,489.38
2018-03-10T11:02:08.615Z,489.38
2018-03-10T11:03:08.619Z,495.00
2018-03-10T11:04:08.614Z,495.00
2018-03-10T11:05:08.612Z,483.75
2018-03-10T11:06:08.611Z,466.88
2018-03-10T11:07:08.609Z,455.63
2018-03-10T11:08:08.612Z,433.13
2018-03-10T11:09:08.612Z,416.25
2018-03-10T11:10:08.611Z,410.63
2018-03-10T11:11:08.610Z,416.25
2018-03-10T11:12:08.608Z,416.25
2018-03-10T11:13:08.604Z,421.88
2018-03-10T11:14:08.605Z,427.50
2018-03-10T11:15:08.604Z,433.13
2018-03-10T11:16:08.600Z,438.75
2018-03-10T11:17:08.597Z,450.00
2018-03-10T11:18:08.596Z,450.00
2018-03-10T11:19:08.596Z,455.63
2018-03-10T11:20:08.596Z,461.25
2018-03-10T11:21:08.593Z,461.25
2018-03-10T11:22:08.593Z,461.25
2018-03-10T11:23:08.590Z,461.25
2018-03-10T11:24:08.593Z,461.25
2018-03-10T11:25:08.591Z,461.25
2018-03-10T11:26:08.589Z,461.25
2018-03-10T11:27:08.587Z,466.88
2018-03-10T11:28:08.583Z,472.50
2018-03-10T11:29:08.585Z,483.75
2018-03-10T11:30:08.580Z,495.00
2018-03-10T11:31:08.582Z,500.63
2018-03-10T11:32:08.582Z,517.50
2018-03-10T11:33:08.579Z,540.00
2018-03-10T11:34:08.578Z,556.88
2018-03-10T11:35:08.576Z,568.13
2018-03-10T11:36:08.575Z,568.13
2018-03-10T11:37:08.574Z,579.38
2018-03-10T11:38:08.571Z,585.00
2018-03-10T11:39:08.572Z,596.25
2018-03-10T11:40:08.567Z,613.13
2018-03-10T11:41:08.580Z,635.63
2018-03-10T11:42:08.563Z,658.13
2018-03-10T11:43:08.563Z,691.88
2018-03-10T11:44:08.561Z,708.75
2018-03-10T11:45:08.560Z,731.25
2018-03-10T11:46:08.560Z,748.13
2018-03-10T11:47:08.558Z,765.00
2018-03-10T11:48:08.560Z,776.25
2018-03-10T11:49:08.557Z,787.50
2018-03-10T11:50:08.561Z,781.88
2018-03-10T11:51:08.555Z,770.63
2018-03-10T11:52:08.555Z,748.13
2018-03-10T11:53:08.552Z,725.63
2018-03-10T11:54:08.555Z,720.00
2018-03-10T11:55:08.551Z,703.13
2018-03-10T11:56:08.547Z,697.50
2018-03-10T11:57:08.574Z,686.25
2018-03-10T11:58:08.545Z,680.63
2018-03-10T11:59:08.544Z,669.38
2018-03-10T12:00:08.544Z,658.13
2018-03-10T12:01:08.542Z,646.88
2018-03-10T12:02:08.545Z,630.00
2018-03-10T12:03:08.542Z,624.38
2018-03-10T12:04:08.544Z,618.75
2018-03-10T12:05:08.542Z,618.75
2018-03-10T12:06:08.544Z,618.75
2018-03-10T12:07:08.542Z,618.75
2018-03-10T12:08:08.542Z,613.13
2018-03-10T12:09:08.540Z,613.13
2018-03-10T12:10:08.541Z,607.50
2018-03-10T12:11:08.540Z,607.50
2018-03-10T12:12:08.536Z,607.50
2018-03-10T12:13:08.535Z,613.13
2018-03-10T12:14:08.534Z,613.13
2018-03-10T12:15:08.534Z,613.13
2018-03-10T12:16:08.539Z,613.13
2018-03-10T12:17:08.532Z,613.13
2018-03-10T12:18:08.532Z,613.13
2018-03-10T12:19:08.532Z,607.50
2018-03-10T12:20:08.536Z,601.88
2018-03-10T12:21:08.537Z,596.25
2018-03-10T12:22:08.532Z,590.63
2018-03-10T12:23:08.534Z,579.38
2018-03-10T12:24:08.531Z,573.75
2018-03-10T12:25:08.532Z,568.13
2018-03-10T12:26:08.529Z,568.13
2018-03-10T12:27:08.529Z,556.88
2018-03-10T12:28:08.526Z,545.63
2018-03-10T12:29:08.524Z,534.38
2018-03-10T12:30:08.523Z,528.75
2018-03-10T12:31:08.524Z,528.75
2018-03-10T12:32:08.525Z,523.13
2018-03-10T12:33:08.526Z,523.13
2018-03-10T12:34:08.523Z,523.13
2018-03-10T12:35:08.523Z,523.13
2018-03-10T12:36:08.519Z,523.13
2018-03-10T12:37:08.517Z,517.50
2018-03-10T12:38:08.519Z,523.13
2018-03-10T12:39:08.516Z,517.50
2018-03-10T12:40:08.515Z,511.88
2018-03-10T12:41:08.517Z,517.50
2018-03-10T12:42:08.517Z,517.50
2018-03-10T12:43:08.513Z,523.13
2018-03-10T12:44:08.517Z,528.75
2018-03-10T12:45:08.513Z,528.75
2018-03-10T12:46:08.512Z,534.38
2018-03-10T12:47:08.512Z,528.75
2018-03-10T12:48:08.515Z,528.75
2018-03-10T12:49:08.509Z,528.75